WetterOnline ( https://www.wetteronline.ch )

Wetter aktuell Bremervörde

Aktuelles Wetter: Bremervörde (5m)

6-stündlich | Neueste Meldungen
Ortszeit Temperatur Wetter
Sa, 19.09. 14:00 19.0° C wolkig
Sa, 19.09. 8:00 4.3° C wolkig
Sa, 19.09. 2:00 6.3° C wolkig
Fr, 18.09. 20:00 11.5° C leicht bewölkt
Fr, 18.09. 14:00 17.7° C leicht bewölkt
Fr, 18.09. 8:00 3.0° C wolkenlos
Fr, 18.09. 2:00 4.6° C wolkenlos
Do, 17.09. 20:00 10.5° C -
Ortszeit Temperatur Wetter
Sa, 19.09. 17:00 19.7° C leicht bewölkt
Sa, 19.09. 16:50 19.7° C wolkig
Sa, 19.09. 16:40 19.8° C wolkig
Sa, 19.09. 16:30 19.7° C wolkig
Sa, 19.09. 16:20 19.7° C wolkig
Sa, 19.09. 16:10 19.2° C wolkig
Sa, 19.09. 16:00 19.3° C leicht bewölkt
Sa, 19.09. 15:30 19.7° C wolkig
Sa, 19.09. 15:00 19.3° C wolkig
Sa, 19.09. 14:30 19.4° C bedeckt
Sa, 19.09. 14:00 19.0° C wolkig
Ortszeit Relative Feuchte Sichtweite
Sa, 19.09. 14:00 40% 50 km
Sa, 19.09. 8:00 100% 8 km
Sa, 19.09. 2:00 96% 40 km
Fr, 18.09. 20:00 68% 55 km
Fr, 18.09. 14:00 40% 65 km
Fr, 18.09. 8:00 97% 16 km
Fr, 18.09. 2:00 98% 28 km
Do, 17.09. 20:00 79% 60 km
Ortszeit Relative Feuchte Sichtweite
Sa, 19.09. 17:00 42% 60 km
Sa, 19.09. 16:50 42% -
Sa, 19.09. 16:40 39% -
Sa, 19.09. 16:30 41% 45 km
Sa, 19.09. 16:20 41% -
Sa, 19.09. 16:10 40% -
Sa, 19.09. 16:00 39% 50 km
Sa, 19.09. 15:30 40% 55 km
Sa, 19.09. 15:00 42% 50 km
Sa, 19.09. 14:30 42% 50 km
Sa, 19.09. 14:00 40% 50 km
Ortszeit Niederschlagsmenge Niederschlagsart
Sa, 19.09. 14:00 0.0 l/m2 in 6 Std. -
Sa, 19.09. 8:00 0.0 l/m2 in 12 Std. -
Sa, 19.09. 2:00 0.0 l/m2 in 6 Std. -
Fr, 18.09. 20:00 0.0 l/m2 in 12 Std. -
Fr, 18.09. 14:00 0.0 l/m2 in 6 Std. -
Fr, 18.09. 8:00 0.0 l/m2 in 12 Std. -
Fr, 18.09. 2:00 0.0 l/m2 in 6 Std. -
Do, 17.09. 20:00 0.0 l/m2 in 12 Std. -
Ortszeit Niederschlagsmenge Niederschlagsart
Sa, 19.09. 17:00 0.0 l/m2 in 1 Std. -
Sa, 19.09. 16:50 keine Meldung -
Sa, 19.09. 16:40 keine Meldung -
Sa, 19.09. 16:30 0.0 l/m2 in 1 Std. -
Sa, 19.09. 16:20 keine Meldung -
Sa, 19.09. 16:10 keine Meldung -
Sa, 19.09. 16:00 0.0 l/m2 in 1 Std. -
Sa, 19.09. 15:30 0.0 l/m2 in 1 Std. -
Sa, 19.09. 15:00 0.0 l/m2 in 1 Std. -
Sa, 19.09. 14:30 0.0 l/m2 in 1 Std. -
Sa, 19.09. 14:00 0.0 l/m2 in 1 Std. -
Ortszeit Stärke Spitze Richtung
km/h Bft. km/h Grad Sektor
Sa, 19.09. 14:00 19 3 30 90° O
Sa, 19.09. 8:00 7 2 11 30° NO
Sa, 19.09. 2:00 7 2 11 20° N
Fr, 18.09. 20:00 7 2 25 60° NO
Fr, 18.09. 14:00 13 3 24 110° O
Fr, 18.09. 8:00 4 1 7 20° N
Fr, 18.09. 2:00 0 0 14 - -
Do, 17.09. 20:00 7 2 25 20° N
Ortszeit Stärke Spitze Richtung
km/h Bft. km/h Grad Sektor
Sa, 19.09. 17:00 18 3 29 80° O
Sa, 19.09. 16:50 18 3 - 80° O
Sa, 19.09. 16:40 18 3 - 80° O
Sa, 19.09. 16:30 17 3 28 90° O
Sa, 19.09. 16:20 17 3 - 90° O
Sa, 19.09. 16:10 17 3 - 100° O
Sa, 19.09. 16:00 20 4 31 90° O
Sa, 19.09. 15:30 18 3 29 90° O
Sa, 19.09. 15:00 18 3 29 100° O
Sa, 19.09. 14:30 18 3 29 90° O
Sa, 19.09. 14:00 19 3 30 90° O
Ortszeit Untergrenze Bedeckung Gattung
total tief tief mittel hoch
Sa, 19.09. 14:00 6600 m 8/8 8/8 - - -
Sa, 19.09. 8:00 9000 m 8/8 0/8 - - -
Sa, 19.09. 2:00 12000 m 8/8 0/8 - - -
Fr, 18.09. 20:00 10500 m 5/8 0/8 - - -
Fr, 18.09. 14:00 10500 m 6/8 0/8 - - -
Fr, 18.09. 8:00 - 0/8 0/8 - - -
Fr, 18.09. 2:00 - 0/8 0/8 - - -
Do, 17.09. 20:00 - - - - - -
Ortszeit Bedeckungsgrad in Achtel und Wolkenuntergrenze
Sa, 19.09. 17:00 7(7200m) 7(7800m) 8(8400m)
Sa, 19.09. 16:50 7(7200m) 7(7800m) 8(8400m)
Sa, 19.09. 16:40 8(7200m) 8(7800m) 8(8400m)
Sa, 19.09. 16:30 8(7200m) 8(8400m) 8(7800m)
Sa, 19.09. 16:20 8(7200m) 8(8400m)
Sa, 19.09. 16:10 8(7500m) 8(8400m)
Sa, 19.09. 16:00 8(7500m) 8(9000m) 8(10500m)
Sa, 19.09. 15:30 2(6900m) 8(7500m) 8(10500m)
Sa, 19.09. 15:00 8(6600m) 8(9000m) 8(10500m)
Sa, 19.09. 14:30 8(6600m) 8(10500m)
Sa, 19.09. 14:00 8(6600m) 8(9000m) 8(10500m)
Ortszeit Luftdruck NN (hPa) Tendenz (hPa in 3 Std.)
Sa, 19.09. 14:00 1023 - 1,4
Sa, 19.09. 8:00 1025 - 0,4
Sa, 19.09. 2:00 1026 - 0,8
Fr, 18.09. 20:00 1027 - 0,6
Fr, 18.09. 14:00 1030 - 1,6
Fr, 18.09. 8:00 1031 0,0
Fr, 18.09. 2:00 1031 - 0,4
Do, 17.09. 20:00 1031 + 0,1
Ortszeit Luftdruck NN (hPa) Tendenz (hPa in 3 Std.)
Sa, 19.09. 17:00 1021 - 1,7
Sa, 19.09. 16:50 1021 keine Meldung
Sa, 19.09. 16:40 1021 keine Meldung
Sa, 19.09. 16:30 1022 - 1,6
Sa, 19.09. 16:20 1022 keine Meldung
Sa, 19.09. 16:10 1022 keine Meldung
Sa, 19.09. 16:00 1022 - 1,5
Sa, 19.09. 15:30 1022 - 1,5
Sa, 19.09. 15:00 1023 - 1,3
Sa, 19.09. 14:30 1023 - 1,4
Sa, 19.09. 14:00 1023 - 1,4
Ortszeit Schneehöhe (cm)
Sa, 19.09. 14:00 -
Sa, 19.09. 8:00 -
Sa, 19.09. 2:00 -
Fr, 18.09. 20:00 -
Fr, 18.09. 14:00 -
Fr, 18.09. 8:00 -
Fr, 18.09. 2:00 -
Do, 17.09. 20:00 -
Ortszeit Schneehöhe (cm)
Sa, 19.09. 17:00 -
Sa, 19.09. 16:50 -
Sa, 19.09. 16:40 -
Sa, 19.09. 16:30 -
Sa, 19.09. 16:20 -
Sa, 19.09. 16:10 -
Sa, 19.09. 16:00 -
Sa, 19.09. 15:30 -
Sa, 19.09. 15:00 -
Sa, 19.09. 14:30 -
Sa, 19.09. 14:00 -
Link zu dieser Seite / Seite empfehlen

Das Wetter in ...